sensor_id;sensor_type;location;lat;lon;timestamp;temperature;humidity
939;DHT22;456;53.584;9.968;2024-03-02T00:00:20;16.50;22.30
939;DHT22;456;53.584;9.968;2024-03-02T00:02:48;16.50;22.30
939;DHT22;456;53.584;9.968;2024-03-02T00:05:16;16.50;22.20
939;DHT22;456;53.584;9.968;2024-03-02T00:07:44;16.50;22.30
939;DHT22;456;53.584;9.968;2024-03-02T00:10:11;16.50;22.30
939;DHT22;456;53.584;9.968;2024-03-02T00:12:38;16.50;22.30
939;DHT22;456;53.584;9.968;2024-03-02T00:15:31;16.50;22.30
939;DHT22;456;53.584;9.968;2024-03-02T00:18:02;16.50;22.30
939;DHT22;456;53.584;9.968;2024-03-02T00:20:27;16.50;22.40
939;DHT22;456;53.584;9.968;2024-03-02T00:23:00;16.50;22.30
939;DHT22;456;53.584;9.968;2024-03-02T00:25:33;16.50;22.40
939;DHT22;456;53.584;9.968;2024-03-02T00:28:01;16.50;22.40
939;DHT22;456;53.584;9.968;2024-03-02T00:30:51;16.50;22.40
939;DHT22;456;53.584;9.968;2024-03-02T00:33:19;16.50;22.40
939;DHT22;456;53.584;9.968;2024-03-02T00:35:45;16.50;22.50
939;DHT22;456;53.584;9.968;2024-03-02T00:38:11;16.50;22.40
939;DHT22;456;53.584;9.968;2024-03-02T00:40:37;16.50;22.50
939;DHT22;456;53.584;9.968;2024-03-02T00:43:03;16.50;22.40
939;DHT22;456;53.584;9.968;2024-03-02T00:45:29;16.50;22.50
939;DHT22;456;53.584;9.968;2024-03-02T00:47:56;16.50;22.50
939;DHT22;456;53.584;9.968;2024-03-02T00:50:21;16.50;22.50
939;DHT22;456;53.584;9.968;2024-03-02T00:52:47;16.50;22.50
939;DHT22;456;53.584;9.968;2024-03-02T00:55:15;16.50;22.50
939;DHT22;456;53.584;9.968;2024-03-02T00:57:41;16.50;22.50
939;DHT22;456;53.584;9.968;2024-03-02T01:00:07;16.50;22.50
939;DHT22;456;53.584;9.968;2024-03-02T01:02:35;16.50;22.50
939;DHT22;456;53.584;9.968;2024-03-02T01:05:01;16.50;22.50
939;DHT22;456;53.584;9.968;2024-03-02T01:07:26;16.40;22.50
939;DHT22;456;53.584;9.968;2024-03-02T01:09:52;16.50;22.60
939;DHT22;456;53.584;9.968;2024-03-02T01:12:18;16.50;22.60
939;DHT22;456;53.584;9.968;2024-03-02T01:14:43;16.50;22.60
939;DHT22;456;53.584;9.968;2024-03-02T01:17:09;16.50;22.60
939;DHT22;456;53.584;9.968;2024-03-02T01:19:34;16.50;22.60
939;DHT22;456;53.584;9.968;2024-03-02T01:22:00;16.40;22.60
939;DHT22;456;53.584;9.968;2024-03-02T01:24:25;16.50;22.70
939;DHT22;456;53.584;9.968;2024-03-02T01:26:51;16.50;22.70
939;DHT22;456;53.584;9.968;2024-03-02T01:29:17;16.50;22.70
939;DHT22;456;53.584;9.968;2024-03-02T01:31:43;16.50;22.70
939;DHT22;456;53.584;9.968;2024-03-02T01:34:08;16.40;22.70
939;DHT22;456;53.584;9.968;2024-03-02T01:36:34;16.50;22.80
939;DHT22;456;53.584;9.968;2024-03-02T01:39:00;16.50;22.80
939;DHT22;456;53.584;9.968;2024-03-02T01:41:26;16.40;22.70
939;DHT22;456;53.584;9.968;2024-03-02T01:43:52;16.40;22.70
939;DHT22;456;53.584;9.968;2024-03-02T01:46:17;16.40;22.70
939;DHT22;456;53.584;9.968;2024-03-02T01:48:43;16.40;22.70
939;DHT22;456;53.584;9.968;2024-03-02T01:51:08;16.40;22.70
939;DHT22;456;53.584;9.968;2024-03-02T01:53:35;16.40;22.70
939;DHT22;456;53.584;9.968;2024-03-02T01:56:01;16.40;22.70
939;DHT22;456;53.584;9.968;2024-03-02T01:58:27;16.40;22.70
939;DHT22;456;53.584;9.968;2024-03-02T02:00:53;16.40;22.70
939;DHT22;456;53.584;9.968;2024-03-02T02:03:19;16.40;22.70
939;DHT22;456;53.584;9.968;2024-03-02T02:05:45;16.40;22.80
939;DHT22;456;53.584;9.968;2024-03-02T02:08:12;16.40;22.80
939;DHT22;456;53.584;9.968;2024-03-02T02:10:38;16.40;22.90
939;DHT22;456;53.584;9.968;2024-03-02T02:13:03;16.40;22.90
939;DHT22;456;53.584;9.968;2024-03-02T02:15:30;16.40;22.90
939;DHT22;456;53.584;9.968;2024-03-02T02:17:56;16.40;22.80
939;DHT22;456;53.584;9.968;2024-03-02T02:20:22;16.40;22.90
939;DHT22;456;53.584;9.968;2024-03-02T02:23:02;16.40;22.80
939;DHT22;456;53.584;9.968;2024-03-02T02:25:29;16.40;22.90
939;DHT22;456;53.584;9.968;2024-03-02T02:27:55;16.40;22.90
939;DHT22;456;53.584;9.968;2024-03-02T02:30:32;16.40;22.90
939;DHT22;456;53.584;9.968;2024-03-02T02:32:58;16.40;22.90
939;DHT22;456;53.584;9.968;2024-03-02T02:35:24;16.40;22.90
939;DHT22;456;53.584;9.968;2024-03-02T02:37:50;16.40;22.90
939;DHT22;456;53.584;9.968;2024-03-02T02:40:17;16.40;22.90
939;DHT22;456;53.584;9.968;2024-03-02T02:42:46;16.40;22.90
939;DHT22;456;53.584;9.968;2024-03-02T02:45:12;16.40;23.00
939;DHT22;456;53.584;9.968;2024-03-02T02:47:40;16.30;23.00
939;DHT22;456;53.584;9.968;2024-03-02T02:50:09;16.40;23.00
939;DHT22;456;53.584;9.968;2024-03-02T02:52:36;16.40;23.10
939;DHT22;456;53.584;9.968;2024-03-02T02:55:04;16.40;23.10
939;DHT22;456;53.584;9.968;2024-03-02T02:57:32;16.40;23.10
939;DHT22;456;53.584;9.968;2024-03-02T03:00:01;16.40;23.10
939;DHT22;456;53.584;9.968;2024-03-02T03:02:30;16.30;23.10
939;DHT22;456;53.584;9.968;2024-03-02T03:04:56;16.40;23.10
939;DHT22;456;53.584;9.968;2024-03-02T03:07:23;16.40;23.20
939;DHT22;456;53.584;9.968;2024-03-02T03:09:48;16.40;23.10
939;DHT22;456;53.584;9.968;2024-03-02T03:12:14;16.40;23.20
939;DHT22;456;53.584;9.968;2024-03-02T03:14:40;16.40;23.20
939;DHT22;456;53.584;9.968;2024-03-02T03:17:06;16.30;23.10
939;DHT22;456;53.584;9.968;2024-03-02T03:19:33;16.40;23.20
939;DHT22;456;53.584;9.968;2024-03-02T03:21:59;16.30;23.10
939;DHT22;456;53.584;9.968;2024-03-02T03:24:25;16.30;23.10
939;DHT22;456;53.584;9.968;2024-03-02T03:26:50;16.30;23.10
939;DHT22;456;53.584;9.968;2024-03-02T03:29:16;16.30;23.10
939;DHT22;456;53.584;9.968;2024-03-02T03:31:41;16.30;23.10
939;DHT22;456;53.584;9.968;2024-03-02T03:34:07;16.30;23.10
939;DHT22;456;53.584;9.968;2024-03-02T03:36:32;16.30;23.10
939;DHT22;456;53.584;9.968;2024-03-02T03:38:58;16.30;23.10
939;DHT22;456;53.584;9.968;2024-03-02T03:41:23;16.30;23.10
939;DHT22;456;53.584;9.968;2024-03-02T03:43:49;16.30;23.10
939;DHT22;456;53.584;9.968;2024-03-02T03:46:15;16.30;23.10
939;DHT22;456;53.584;9.968;2024-03-02T03:48:41;16.30;23.10
939;DHT22;456;53.584;9.968;2024-03-02T03:51:07;16.30;23.10
939;DHT22;456;53.584;9.968;2024-03-02T03:53:32;16.30;23.10
939;DHT22;456;53.584;9.968;2024-03-02T03:55:58;16.30;23.10
939;DHT22;456;53.584;9.968;2024-03-02T03:58:24;16.30;23.10
939;DHT22;456;53.584;9.968;2024-03-02T04:00:49;16.30;23.10
939;DHT22;456;53.584;9.968;2024-03-02T04:03:15;16.30;23.10
939;DHT22;456;53.584;9.968;2024-03-02T04:05:40;16.30;23.10
939;DHT22;456;53.584;9.968;2024-03-02T04:08:06;16.30;23.10
939;DHT22;456;53.584;9.968;2024-03-02T04:10:32;16.30;23.10
939;DHT22;456;53.584;9.968;2024-03-02T04:12:59;16.30;23.10
939;DHT22;456;53.584;9.968;2024-03-02T04:15:25;16.30;23.10
939;DHT22;456;53.584;9.968;2024-03-02T04:17:50;16.30;23.10
939;DHT22;456;53.584;9.968;2024-03-02T04:20:16;16.30;23.10
939;DHT22;456;53.584;9.968;2024-03-02T04:22:41;16.30;23.10
939;DHT22;456;53.584;9.968;2024-03-02T04:25:07;16.30;23.10
939;DHT22;456;53.584;9.968;2024-03-02T04:27:33;16.30;23.10
939;DHT22;456;53.584;9.968;2024-03-02T04:29:59;16.30;23.10
939;DHT22;456;53.584;9.968;2024-03-02T04:32:26;16.30;23.10
939;DHT22;456;53.584;9.968;2024-03-02T04:34:52;16.30;23.10
939;DHT22;456;53.584;9.968;2024-03-02T04:37:17;16.30;23.10
939;DHT22;456;53.584;9.968;2024-03-02T04:39:44;16.30;23.10
939;DHT22;456;53.584;9.968;2024-03-02T04:42:10;16.30;23.10
939;DHT22;456;53.584;9.968;2024-03-02T04:44:35;16.30;23.10
939;DHT22;456;53.584;9.968;2024-03-02T04:47:02;16.30;23.10
939;DHT22;456;53.584;9.968;2024-03-02T04:49:27;16.30;23.10
939;DHT22;456;53.584;9.968;2024-03-02T04:51:53;16.30;23.10
939;DHT22;456;53.584;9.968;2024-03-02T04:54:19;16.20;23.10
939;DHT22;456;53.584;9.968;2024-03-02T04:56:44;16.30;23.60
939;DHT22;456;53.584;9.968;2024-03-02T04:59:14;16.30;23.10
939;DHT22;456;53.584;9.968;2024-03-02T05:01:40;16.30;23.10
939;DHT22;456;53.584;9.968;2024-03-02T05:04:06;16.30;23.10
939;DHT22;456;53.584;9.968;2024-03-02T05:06:31;16.30;23.10
939;DHT22;456;53.584;9.968;2024-03-02T05:08:57;16.30;23.10
939;DHT22;456;53.584;9.968;2024-03-02T05:11:22;16.30;23.10
939;DHT22;456;53.584;9.968;2024-03-02T05:14:05;16.30;23.10
939;DHT22;456;53.584;9.968;2024-03-02T05:16:39;16.20;23.10
939;DHT22;456;53.584;9.968;2024-03-02T05:19:07;16.30;23.10
939;DHT22;456;53.584;9.968;2024-03-02T05:21:33;16.30;23.10
939;DHT22;456;53.584;9.968;2024-03-02T05:23:59;16.20;23.10
939;DHT22;456;53.584;9.968;2024-03-02T05:26:24;16.20;23.10
939;DHT22;456;53.584;9.968;2024-03-02T05:28:50;16.20;23.00
939;DHT22;456;53.584;9.968;2024-03-02T05:31:16;16.20;23.00
939;DHT22;456;53.584;9.968;2024-03-02T05:33:42;16.20;23.00
939;DHT22;456;53.584;9.968;2024-03-02T05:36:08;16.20;23.00
939;DHT22;456;53.584;9.968;2024-03-02T05:38:37;16.20;23.00
939;DHT22;456;53.584;9.968;2024-03-02T05:41:02;16.20;22.90
939;DHT22;456;53.584;9.968;2024-03-02T05:43:28;16.20;22.90
939;DHT22;456;53.584;9.968;2024-03-02T05:45:54;16.20;23.00
939;DHT22;456;53.584;9.968;2024-03-02T05:48:20;16.20;22.90
939;DHT22;456;53.584;9.968;2024-03-02T05:50:45;16.20;23.00
939;DHT22;456;53.584;9.968;2024-03-02T05:53:11;16.20;22.80
939;DHT22;456;53.584;9.968;2024-03-02T05:55:36;16.20;22.80
939;DHT22;456;53.584;9.968;2024-03-02T05:58:02;16.20;22.90
939;DHT22;456;53.584;9.968;2024-03-02T06:00:46;16.20;22.70
939;DHT22;456;53.584;9.968;2024-03-02T06:03:11;16.20;22.80
939;DHT22;456;53.584;9.968;2024-03-02T06:05:37;16.20;22.70
939;DHT22;456;53.584;9.968;2024-03-02T06:08:03;16.20;22.70
939;DHT22;456;53.584;9.968;2024-03-02T06:10:28;16.20;22.70
939;DHT22;456;53.584;9.968;2024-03-02T06:12:54;16.20;22.60
939;DHT22;456;53.584;9.968;2024-03-02T06:15:19;16.20;22.60
939;DHT22;456;53.584;9.968;2024-03-02T06:17:45;16.20;22.70
939;DHT22;456;53.584;9.968;2024-03-02T06:20:11;16.20;22.60
939;DHT22;456;53.584;9.968;2024-03-02T06:22:37;16.20;22.60
939;DHT22;456;53.584;9.968;2024-03-02T06:25:02;16.20;22.60
939;DHT22;456;53.584;9.968;2024-03-02T06:27:28;16.20;22.50
939;DHT22;456;53.584;9.968;2024-03-02T06:29:54;16.20;22.60
939;DHT22;456;53.584;9.968;2024-03-02T06:32:20;16.20;22.50
939;DHT22;456;53.584;9.968;2024-03-02T06:34:45;16.20;22.50
939;DHT22;456;53.584;9.968;2024-03-02T06:37:11;16.20;22.50
939;DHT22;456;53.584;9.968;2024-03-02T06:39:36;16.20;22.50
939;DHT22;456;53.584;9.968;2024-03-02T06:42:02;16.20;22.40
939;DHT22;456;53.584;9.968;2024-03-02T06:44:28;16.30;22.50
939;DHT22;456;53.584;9.968;2024-03-02T06:46:54;16.30;22.30
939;DHT22;456;53.584;9.968;2024-03-02T06:49:19;16.40;22.30
939;DHT22;456;53.584;9.968;2024-03-02T06:51:45;16.40;22.20
939;DHT22;456;53.584;9.968;2024-03-02T06:54:10;16.50;22.30
939;DHT22;456;53.584;9.968;2024-03-02T06:56:36;16.50;22.30
939;DHT22;456;53.584;9.968;2024-03-02T06:59:02;16.60;22.30
939;DHT22;456;53.584;9.968;2024-03-02T07:01:28;16.60;22.30
939;DHT22;456;53.584;9.968;2024-03-02T07:03:54;16.60;22.30
939;DHT22;456;53.584;9.968;2024-03-02T07:06:19;16.70;22.30
939;DHT22;456;53.584;9.968;2024-03-02T07:08:45;16.70;22.30
939;DHT22;456;53.584;9.968;2024-03-02T07:11:10;16.70;22.30
939;DHT22;456;53.584;9.968;2024-03-02T07:13:36;16.70;22.20
939;DHT22;456;53.584;9.968;2024-03-02T07:16:02;16.80;22.30
939;DHT22;456;53.584;9.968;2024-03-02T07:18:36;16.80;22.30
939;DHT22;456;53.584;9.968;2024-03-02T07:21:10;16.70;22.20
939;DHT22;456;53.584;9.968;2024-03-02T07:23:36;16.80;22.30
939;DHT22;456;53.584;9.968;2024-03-02T07:26:01;16.70;22.20
939;DHT22;456;53.584;9.968;2024-03-02T07:28:28;16.70;22.20
939;DHT22;456;53.584;9.968;2024-03-02T07:30:58;16.80;22.30
939;DHT22;456;53.584;9.968;2024-03-02T07:33:24;16.80;22.30
939;DHT22;456;53.584;9.968;2024-03-02T07:35:49;16.80;22.30
939;DHT22;456;53.584;9.968;2024-03-02T07:38:15;16.80;22.30
939;DHT22;456;53.584;9.968;2024-03-02T07:40:41;16.80;22.30
939;DHT22;456;53.584;9.968;2024-03-02T07:43:07;16.80;22.30
939;DHT22;456;53.584;9.968;2024-03-02T07:45:34;16.80;22.30
939;DHT22;456;53.584;9.968;2024-03-02T07:48:01;16.90;22.30
939;DHT22;456;53.584;9.968;2024-03-02T07:50:29;16.90;22.30
939;DHT22;456;53.584;9.968;2024-03-02T07:52:55;16.90;22.30
939;DHT22;456;53.584;9.968;2024-03-02T07:55:21;16.90;22.20
939;DHT22;456;53.584;9.968;2024-03-02T07:57:47;16.90;22.30
939;DHT22;456;53.584;9.968;2024-03-02T08:00:12;16.90;22.30
939;DHT22;456;53.584;9.968;2024-03-02T08:02:40;16.90;22.80
939;DHT22;456;53.584;9.968;2024-03-02T08:05:06;16.90;22.30
939;DHT22;456;53.584;9.968;2024-03-02T08:07:31;16.90;22.20
939;DHT22;456;53.584;9.968;2024-03-02T08:09:57;16.90;22.20
939;DHT22;456;53.584;9.968;2024-03-02T08:12:22;16.90;22.20
939;DHT22;456;53.584;9.968;2024-03-02T08:14:49;16.90;22.20
939;DHT22;456;53.584;9.968;2024-03-02T08:17:14;16.90;22.20
939;DHT22;456;53.584;9.968;2024-03-02T08:19:40;16.90;22.20
939;DHT22;456;53.584;9.968;2024-03-02T08:22:06;16.90;22.20
939;DHT22;456;53.584;9.968;2024-03-02T08:24:32;17.00;22.30
939;DHT22;456;53.584;9.968;2024-03-02T08:26:59;17.00;22.30
939;DHT22;456;53.584;9.968;2024-03-02T08:29:25;17.00;22.30
939;DHT22;456;53.584;9.968;2024-03-02T08:31:50;17.00;22.20
939;DHT22;456;53.584;9.968;2024-03-02T08:34:16;17.00;22.30
939;DHT22;456;53.584;9.968;2024-03-02T08:36:42;17.00;22.30
939;DHT22;456;53.584;9.968;2024-03-02T08:39:10;17.00;22.20
939;DHT22;456;53.584;9.968;2024-03-02T08:41:46;17.00;22.20
939;DHT22;456;53.584;9.968;2024-03-02T08:44:13;17.00;22.20
939;DHT22;456;53.584;9.968;2024-03-02T08:46:39;17.00;22.20
939;DHT22;456;53.584;9.968;2024-03-02T08:49:06;17.00;22.30
939;DHT22;456;53.584;9.968;2024-03-02T08:51:31;17.00;22.20
939;DHT22;456;53.584;9.968;2024-03-02T08:53:57;17.00;22.20
939;DHT22;456;53.584;9.968;2024-03-02T08:56:23;17.00;22.20
939;DHT22;456;53.584;9.968;2024-03-02T08:58:50;17.00;22.40
939;DHT22;456;53.584;9.968;2024-03-02T09:01:16;17.00;22.30
939;DHT22;456;53.584;9.968;2024-03-02T09:03:42;17.10;22.30
939;DHT22;456;53.584;9.968;2024-03-02T09:06:11;17.10;22.30
939;DHT22;456;53.584;9.968;2024-03-02T09:08:37;17.10;22.40
939;DHT22;456;53.584;9.968;2024-03-02T09:11:04;17.10;22.30
939;DHT22;456;53.584;9.968;2024-03-02T09:13:30;17.10;22.30
939;DHT22;456;53.584;9.968;2024-03-02T09:15:56;17.10;22.40
939;DHT22;456;53.584;9.968;2024-03-02T09:18:22;17.10;22.30
939;DHT22;456;53.584;9.968;2024-03-02T09:20:47;17.00;22.30
939;DHT22;456;53.584;9.968;2024-03-02T09:23:13;17.10;22.40
939;DHT22;456;53.584;9.968;2024-03-02T09:25:38;17.10;22.40
939;DHT22;456;53.584;9.968;2024-03-02T09:28:04;17.10;22.30
939;DHT22;456;53.584;9.968;2024-03-02T09:30:30;17.10;22.40
939;DHT22;456;53.584;9.968;2024-03-02T09:32:55;17.10;22.40
939;DHT22;456;53.584;9.968;2024-03-02T09:35:21;17.10;22.40
939;DHT22;456;53.584;9.968;2024-03-02T09:37:46;17.10;22.40
939;DHT22;456;53.584;9.968;2024-03-02T09:40:13;17.10;22.40
939;DHT22;456;53.584;9.968;2024-03-02T09:42:40;17.10;22.40
939;DHT22;456;53.584;9.968;2024-03-02T09:45:06;17.20;22.50
939;DHT22;456;53.584;9.968;2024-03-02T09:47:32;17.10;22.30
939;DHT22;456;53.584;9.968;2024-03-02T09:49:58;17.20;22.50
939;DHT22;456;53.584;9.968;2024-03-02T09:52:24;17.10;22.30
939;DHT22;456;53.584;9.968;2024-03-02T09:54:50;17.20;22.50
939;DHT22;456;53.584;9.968;2024-03-02T09:57:16;17.20;22.50
939;DHT22;456;53.584;9.968;2024-03-02T09:59:42;17.20;22.50
939;DHT22;456;53.584;9.968;2024-03-02T10:02:07;17.20;22.40
939;DHT22;456;53.584;9.968;2024-03-02T10:04:33;17.20;22.40
939;DHT22;456;53.584;9.968;2024-03-02T10:07:10;17.20;22.40
939;DHT22;456;53.584;9.968;2024-03-02T10:09:37;17.20;23.00
939;DHT22;456;53.584;9.968;2024-03-02T10:12:07;17.20;22.40
939;DHT22;456;53.584;9.968;2024-03-02T10:14:33;17.20;22.50
939;DHT22;456;53.584;9.968;2024-03-02T10:17:07;17.20;22.40
939;DHT22;456;53.584;9.968;2024-03-02T10:19:34;17.20;22.50
939;DHT22;456;53.584;9.968;2024-03-02T10:22:01;17.20;22.50
939;DHT22;456;53.584;9.968;2024-03-02T10:24:34;17.20;22.50
939;DHT22;456;53.584;9.968;2024-03-02T10:27:00;17.20;22.50
939;DHT22;456;53.584;9.968;2024-03-02T10:29:29;17.20;22.50
939;DHT22;456;53.584;9.968;2024-03-02T10:31:55;17.20;22.50
939;DHT22;456;53.584;9.968;2024-03-02T10:34:21;17.20;22.50
939;DHT22;456;53.584;9.968;2024-03-02T10:36:47;17.20;22.50
939;DHT22;456;53.584;9.968;2024-03-02T10:39:14;17.20;22.50
939;DHT22;456;53.584;9.968;2024-03-02T10:41:40;17.20;22.50
939;DHT22;456;53.584;9.968;2024-03-02T10:44:07;17.20;22.40
939;DHT22;456;53.584;9.968;2024-03-02T10:46:35;17.20;22.50
939;DHT22;456;53.584;9.968;2024-03-02T10:49:02;17.20;22.50
939;DHT22;456;53.584;9.968;2024-03-02T10:51:32;17.20;22.50
939;DHT22;456;53.584;9.968;2024-03-02T10:53:58;17.20;22.50
939;DHT22;456;53.584;9.968;2024-03-02T10:56:34;17.20;23.00
939;DHT22;456;53.584;9.968;2024-03-02T11:01:30;17.20;22.50
939;DHT22;456;53.584;9.968;2024-03-02T11:03:57;17.20;22.50
939;DHT22;456;53.584;9.968;2024-03-02T11:06:23;17.20;22.50
939;DHT22;456;53.584;9.968;2024-03-02T11:08:53;17.20;22.50
939;DHT22;456;53.584;9.968;2024-03-02T11:11:29;17.20;22.50
939;DHT22;456;53.584;9.968;2024-03-02T11:13:57;17.20;22.50
939;DHT22;456;53.584;9.968;2024-03-02T11:16:35;17.30;22.50
939;DHT22;456;53.584;9.968;2024-03-02T11:19:05;17.30;22.50
939;DHT22;456;53.584;9.968;2024-03-02T11:21:35;17.30;22.50
939;DHT22;456;53.584;9.968;2024-03-02T11:26:49;17.30;22.60
939;DHT22;456;53.584;9.968;2024-03-02T11:29:46;17.30;22.50
939;DHT22;456;53.584;9.968;2024-03-02T11:32:20;17.30;22.60
939;DHT22;456;53.584;9.968;2024-03-02T11:34:48;17.20;22.50
939;DHT22;456;53.584;9.968;2024-03-02T11:37:16;17.30;22.60
939;DHT22;456;53.584;9.968;2024-03-02T11:39:44;17.30;22.50
939;DHT22;456;53.584;9.968;2024-03-02T11:42:11;17.30;22.60
939;DHT22;456;53.584;9.968;2024-03-02T11:44:39;17.30;22.60
939;DHT22;456;53.584;9.968;2024-03-02T11:47:08;17.30;22.60
939;DHT22;456;53.584;9.968;2024-03-02T11:52:05;17.30;22.60
939;DHT22;456;53.584;9.968;2024-03-02T11:54:33;17.30;22.60
939;DHT22;456;53.584;9.968;2024-03-02T11:57:02;17.30;22.60
939;DHT22;456;53.584;9.968;2024-03-02T11:59:31;17.30;22.60
939;DHT22;456;53.584;9.968;2024-03-02T12:01:58;17.30;22.60
939;DHT22;456;53.584;9.968;2024-03-02T12:04:24;17.30;22.60
939;DHT22;456;53.584;9.968;2024-03-02T12:09:22;17.30;22.70
939;DHT22;456;53.584;9.968;2024-03-02T12:11:47;17.30;22.60
939;DHT22;456;53.584;9.968;2024-03-02T12:14:13;17.30;22.60
939;DHT22;456;53.584;9.968;2024-03-02T12:16:39;17.30;22.60
939;DHT22;456;53.584;9.968;2024-03-02T12:19:08;17.30;22.60
939;DHT22;456;53.584;9.968;2024-03-02T12:21:34;17.30;22.60
939;DHT22;456;53.584;9.968;2024-03-02T12:24:00;17.30;22.60
939;DHT22;456;53.584;9.968;2024-03-02T12:26:26;17.30;22.60
939;DHT22;456;53.584;9.968;2024-03-02T12:28:51;17.30;22.60
939;DHT22;456;53.584;9.968;2024-03-02T12:31:17;17.30;22.60
939;DHT22;456;53.584;9.968;2024-03-02T12:33:42;17.30;22.60
939;DHT22;456;53.584;9.968;2024-03-02T12:36:13;17.30;22.60
939;DHT22;456;53.584;9.968;2024-03-02T12:38:43;17.30;22.60
939;DHT22;456;53.584;9.968;2024-03-02T12:41:09;17.30;22.70
939;DHT22;456;53.584;9.968;2024-03-02T12:43:34;17.30;22.60
939;DHT22;456;53.584;9.968;2024-03-02T12:46:00;17.30;22.70
939;DHT22;456;53.584;9.968;2024-03-02T12:48:26;17.30;22.70
939;DHT22;456;53.584;9.968;2024-03-02T12:50:52;17.30;22.70
939;DHT22;456;53.584;9.968;2024-03-02T12:53:17;17.30;22.70
939;DHT22;456;53.584;9.968;2024-03-02T12:55:43;17.30;22.70
939;DHT22;456;53.584;9.968;2024-03-02T12:58:19;17.30;22.70
939;DHT22;456;53.584;9.968;2024-03-02T13:00:46;17.30;22.70
939;DHT22;456;53.584;9.968;2024-03-02T13:03:12;17.30;22.70
939;DHT22;456;53.584;9.968;2024-03-02T13:05:39;17.30;22.70
939;DHT22;456;53.584;9.968;2024-03-02T13:08:06;17.30;22.70
939;DHT22;456;53.584;9.968;2024-03-02T13:10:32;17.30;23.20
939;DHT22;456;53.584;9.968;2024-03-02T13:12:58;17.30;22.70
939;DHT22;456;53.584;9.968;2024-03-02T13:15:26;17.30;22.70
939;DHT22;456;53.584;9.968;2024-03-02T13:17:52;17.30;22.70
939;DHT22;456;53.584;9.968;2024-03-02T13:20:18;17.30;22.70
939;DHT22;456;53.584;9.968;2024-03-02T13:22:44;17.40;22.80
939;DHT22;456;53.584;9.968;2024-03-02T13:25:10;17.30;22.70
939;DHT22;456;53.584;9.968;2024-03-02T13:27:36;17.30;22.80
939;DHT22;456;53.584;9.968;2024-03-02T13:30:03;17.30;22.80
939;DHT22;456;53.584;9.968;2024-03-02T13:32:29;17.30;22.70
939;DHT22;456;53.584;9.968;2024-03-02T13:34:54;17.30;22.80
939;DHT22;456;53.584;9.968;2024-03-02T13:37:21;17.40;22.80
939;DHT22;456;53.584;9.968;2024-03-02T13:39:47;17.40;22.80
939;DHT22;456;53.584;9.968;2024-03-02T13:42:12;17.40;22.80
939;DHT22;456;53.584;9.968;2024-03-02T13:44:40;17.30;22.80
939;DHT22;456;53.584;9.968;2024-03-02T13:47:07;17.30;22.80
939;DHT22;456;53.584;9.968;2024-03-02T13:49:33;17.30;22.80
939;DHT22;456;53.584;9.968;2024-03-02T13:52:08;17.30;22.80
939;DHT22;456;53.584;9.968;2024-03-02T13:54:44;17.30;22.80
939;DHT22;456;53.584;9.968;2024-03-02T13:57:10;17.30;22.80
939;DHT22;456;53.584;9.968;2024-03-02T13:59:37;17.30;22.80
939;DHT22;456;53.584;9.968;2024-03-02T14:02:03;17.30;22.80
939;DHT22;456;53.584;9.968;2024-03-02T14:04:31;17.30;22.80
939;DHT22;456;53.584;9.968;2024-03-02T14:06:57;17.30;22.80
939;DHT22;456;53.584;9.968;2024-03-02T14:09:22;17.30;22.90
939;DHT22;456;53.584;9.968;2024-03-02T14:11:50;17.30;22.90
939;DHT22;456;53.584;9.968;2024-03-02T14:14:16;17.20;22.90
939;DHT22;456;53.584;9.968;2024-03-02T14:16:42;17.20;22.90
939;DHT22;456;53.584;9.968;2024-03-02T14:19:07;17.20;22.90
939;DHT22;456;53.584;9.968;2024-03-02T14:21:34;17.20;22.90
939;DHT22;456;53.584;9.968;2024-03-02T14:24:01;17.20;22.90
939;DHT22;456;53.584;9.968;2024-03-02T14:26:27;17.20;22.90
939;DHT22;456;53.584;9.968;2024-03-02T14:28:54;17.20;22.90
939;DHT22;456;53.584;9.968;2024-03-02T14:31:20;17.20;22.90
939;DHT22;456;53.584;9.968;2024-03-02T14:33:46;17.20;22.90
939;DHT22;456;53.584;9.968;2024-03-02T14:36:12;17.20;22.90
939;DHT22;456;53.584;9.968;2024-03-02T14:38:38;17.20;22.90
939;DHT22;456;53.584;9.968;2024-03-02T14:41:04;17.10;22.90
939;DHT22;456;53.584;9.968;2024-03-02T14:43:30;17.10;22.90
939;DHT22;456;53.584;9.968;2024-03-02T14:45:56;17.10;22.90
939;DHT22;456;53.584;9.968;2024-03-02T14:48:22;17.10;22.90
939;DHT22;456;53.584;9.968;2024-03-02T14:50:48;17.10;22.90
939;DHT22;456;53.584;9.968;2024-03-02T14:53:13;17.10;22.90
939;DHT22;456;53.584;9.968;2024-03-02T14:55:39;17.10;22.90
939;DHT22;456;53.584;9.968;2024-03-02T14:58:05;17.10;22.90
939;DHT22;456;53.584;9.968;2024-03-02T15:00:30;17.10;22.90
939;DHT22;456;53.584;9.968;2024-03-02T15:02:56;17.10;23.00
939;DHT22;456;53.584;9.968;2024-03-02T15:05:21;17.10;23.00
939;DHT22;456;53.584;9.968;2024-03-02T15:07:47;17.10;23.00
939;DHT22;456;53.584;9.968;2024-03-02T15:10:13;17.10;23.10
939;DHT22;456;53.584;9.968;2024-03-02T15:12:38;17.10;23.10
939;DHT22;456;53.584;9.968;2024-03-02T15:15:04;17.10;23.10
939;DHT22;456;53.584;9.968;2024-03-02T15:17:30;17.10;23.10
939;DHT22;456;53.584;9.968;2024-03-02T15:19:56;17.10;23.10
939;DHT22;456;53.584;9.968;2024-03-02T15:22:21;17.00;23.20
939;DHT22;456;53.584;9.968;2024-03-02T15:24:47;17.10;23.30
939;DHT22;456;53.584;9.968;2024-03-02T15:27:12;17.00;23.10
939;DHT22;456;53.584;9.968;2024-03-02T15:29:39;17.00;23.20
939;DHT22;456;53.584;9.968;2024-03-02T15:32:05;17.00;23.20
939;DHT22;456;53.584;9.968;2024-03-02T15:34:32;17.00;23.20
939;DHT22;456;53.584;9.968;2024-03-02T15:36:58;17.00;23.20
939;DHT22;456;53.584;9.968;2024-03-02T15:39:25;17.00;23.20
939;DHT22;456;53.584;9.968;2024-03-02T15:41:50;17.00;23.20
939;DHT22;456;53.584;9.968;2024-03-02T15:44:16;17.00;23.30
939;DHT22;456;53.584;9.968;2024-03-02T15:46:41;17.00;23.30
939;DHT22;456;53.584;9.968;2024-03-02T15:49:07;17.00;23.30
939;DHT22;456;53.584;9.968;2024-03-02T15:51:34;17.00;23.30
939;DHT22;456;53.584;9.968;2024-03-02T15:54:02;17.00;23.40
939;DHT22;456;53.584;9.968;2024-03-02T15:56:28;17.00;23.30
939;DHT22;456;53.584;9.968;2024-03-02T15:58:53;17.00;23.40
939;DHT22;456;53.584;9.968;2024-03-02T16:01:19;17.00;23.40
939;DHT22;456;53.584;9.968;2024-03-02T16:03:45;17.00;23.40
939;DHT22;456;53.584;9.968;2024-03-02T16:06:11;17.00;23.40
939;DHT22;456;53.584;9.968;2024-03-02T16:08:37;16.90;23.40
939;DHT22;456;53.584;9.968;2024-03-02T16:11:02;17.00;23.40
939;DHT22;456;53.584;9.968;2024-03-02T16:13:29;17.00;23.50
939;DHT22;456;53.584;9.968;2024-03-02T16:15:55;16.90;23.50
939;DHT22;456;53.584;9.968;2024-03-02T16:18:21;16.90;23.50
939;DHT22;456;53.584;9.968;2024-03-02T16:20:46;16.90;23.50
939;DHT22;456;53.584;9.968;2024-03-02T16:23:12;16.90;23.50
939;DHT22;456;53.584;9.968;2024-03-02T16:25:37;16.90;23.50
939;DHT22;456;53.584;9.968;2024-03-02T16:28:06;16.90;23.50
939;DHT22;456;53.584;9.968;2024-03-02T16:30:32;16.90;23.50
939;DHT22;456;53.584;9.968;2024-03-02T16:32:57;16.90;23.50
939;DHT22;456;53.584;9.968;2024-03-02T16:35:24;16.90;23.50
939;DHT22;456;53.584;9.968;2024-03-02T16:37:49;16.90;23.50
939;DHT22;456;53.584;9.968;2024-03-02T16:40:15;16.90;23.50